createdAt,value
2022-08-25T00:01:55.320Z,17.01
2022-08-25T00:04:22.888Z,17.00
2022-08-25T00:06:49.286Z,16.97
2022-08-25T00:09:17.059Z,16.93
2022-08-25T00:11:44.070Z,16.91
2022-08-25T00:14:13.217Z,16.87
2022-08-25T00:16:39.729Z,16.85
2022-08-25T00:19:08.450Z,16.85
2022-08-25T00:21:34.885Z,16.84
2022-08-25T00:24:02.361Z,16.86
2022-08-25T00:26:29.356Z,16.81
2022-08-25T00:29:01.640Z,16.79
2022-08-25T00:31:38.669Z,16.84
2022-08-25T00:34:07.564Z,16.79
2022-08-25T00:36:34.222Z,16.79
2022-08-25T00:39:00.533Z,16.81
2022-08-25T00:41:27.100Z,16.82
2022-08-25T00:43:56.630Z,16.80
2022-08-25T00:46:25.545Z,16.81
2022-08-25T00:48:55.636Z,16.73
2022-08-25T00:51:25.543Z,16.78
2022-08-25T00:53:51.865Z,16.75
2022-08-25T00:56:18.731Z,16.71
2022-08-25T00:58:47.843Z,16.72
2022-08-25T01:01:14.264Z,16.70
2022-08-25T01:03:40.739Z,16.69
2022-08-25T01:06:07.168Z,16.69
2022-08-25T01:08:33.983Z,16.66
2022-08-25T01:11:05.279Z,16.63
2022-08-25T01:13:34.443Z,16.58
2022-08-25T01:16:01.259Z,16.57
2022-08-25T01:18:28.312Z,16.52
2022-08-25T01:20:55.809Z,16.49
2022-08-25T01:23:23.195Z,16.46
2022-08-25T01:25:58.905Z,16.42
2022-08-25T01:28:25.221Z,16.39
2022-08-25T01:30:52.465Z,16.39
2022-08-25T01:33:18.905Z,16.40
2022-08-25T01:35:45.758Z,16.39
2022-08-25T01:38:12.289Z,16.43
2022-08-25T01:40:39.824Z,16.46
2022-08-25T01:43:09.587Z,16.42
2022-08-25T01:45:36.307Z,16.45
2022-08-25T01:48:03.070Z,16.38
2022-08-25T01:50:29.439Z,16.34
2022-08-25T01:52:55.823Z,16.29
2022-08-25T01:55:22.224Z,16.25
2022-08-25T01:57:48.634Z,16.20
2022-08-25T02:00:15.566Z,16.19
2022-08-25T02:02:42.701Z,16.19
2022-08-25T02:05:10.919Z,16.17
2022-08-25T02:07:38.311Z,16.14
2022-08-25T02:10:06.470Z,16.09
2022-08-25T02:12:33.310Z,16.06
2022-08-25T02:15:01.694Z,16.04
2022-08-25T02:17:29.176Z,16.01
2022-08-25T02:19:56.959Z,15.98
2022-08-25T02:22:23.920Z,15.94
2022-08-25T02:24:50.310Z,15.92
2022-08-25T02:27:16.624Z,15.92
2022-08-25T02:29:42.948Z,15.91
2022-08-25T02:32:10.299Z,15.92
2022-08-25T02:34:37.206Z,15.90
2022-08-25T02:37:03.578Z,15.88
2022-08-25T02:39:29.947Z,15.86
2022-08-25T02:41:56.255Z,15.83
2022-08-25T02:44:22.583Z,15.81
2022-08-25T02:46:48.900Z,15.79
2022-08-25T02:49:15.211Z,15.79
2022-08-25T02:51:41.539Z,15.78
2022-08-25T02:54:07.874Z,15.75
2022-08-25T02:56:34.374Z,15.71
2022-08-25T02:59:01.849Z,15.72
2022-08-25T03:01:29.181Z,15.70
2022-08-25T03:03:55.986Z,15.65
2022-08-25T03:06:25.087Z,15.63
2022-08-25T03:08:52.317Z,15.58
2022-08-25T03:11:18.712Z,15.57
2022-08-25T03:13:45.381Z,15.53
2022-08-25T03:16:12.365Z,15.52
2022-08-25T03:18:40.550Z,15.51
2022-08-25T03:21:07.241Z,15.47
2022-08-25T03:23:33.583Z,15.44
2022-08-25T03:26:18.449Z,15.42
2022-08-25T03:28:44.836Z,15.43
2022-08-25T03:31:11.180Z,15.42
2022-08-25T03:33:38.337Z,15.44
2022-08-25T03:36:05.567Z,15.43
2022-08-25T03:38:31.984Z,15.43
2022-08-25T03:40:58.331Z,15.43
2022-08-25T03:43:24.708Z,15.40
2022-08-25T03:45:51.215Z,15.38
2022-08-25T03:48:17.737Z,15.36
2022-08-25T03:50:50.641Z,15.35
2022-08-25T03:53:18.826Z,15.33
2022-08-25T03:55:45.210Z,15.34
2022-08-25T03:58:12.374Z,15.32
2022-08-25T04:00:38.739Z,15.31
2022-08-25T04:03:05.085Z,15.30
2022-08-25T04:05:31.462Z,15.28
2022-08-25T04:08:01.688Z,15.29
2022-08-25T04:10:28.276Z,15.31
2022-08-25T04:12:55.898Z,15.29
2022-08-25T04:15:22.235Z,15.27
2022-08-25T04:17:48.525Z,15.28
2022-08-25T04:20:18.945Z,15.31
2022-08-25T04:22:45.404Z,15.40
2022-08-25T04:25:12.267Z,15.50
2022-08-25T04:27:38.674Z,15.58
2022-08-25T04:30:05.826Z,15.70
2022-08-25T04:32:32.532Z,15.78
2022-08-25T04:34:59.146Z,15.83
2022-08-25T04:37:25.519Z,15.93
2022-08-25T04:39:51.906Z,16.01
2022-08-25T04:42:18.266Z,16.09
2022-08-25T04:44:44.658Z,16.14
2022-08-25T04:47:11.048Z,16.21
2022-08-25T04:49:37.531Z,16.31
2022-08-25T04:52:04.202Z,16.42
2022-08-25T04:54:37.129Z,16.49
2022-08-25T04:57:03.995Z,16.59
2022-08-25T04:59:30.806Z,16.68
2022-08-25T05:01:58.673Z,16.73
2022-08-25T05:04:28.177Z,16.81
2022-08-25T05:06:55.104Z,16.89
2022-08-25T05:09:21.773Z,16.96
2022-08-25T05:11:48.232Z,17.05
2022-08-25T05:14:18.143Z,17.12
2022-08-25T05:16:46.225Z,17.22
2022-08-25T05:19:13.047Z,17.30
2022-08-25T05:21:39.843Z,17.38
2022-08-25T05:24:06.911Z,17.45
2022-08-25T05:26:34.078Z,17.53
2022-08-25T05:29:01.210Z,17.59
2022-08-25T05:31:28.455Z,17.66
2022-08-25T05:33:55.272Z,17.69
2022-08-25T05:36:22.551Z,17.74
2022-08-25T05:38:49.112Z,17.82
2022-08-25T05:41:16.891Z,17.90
2022-08-25T05:43:44.179Z,17.98
2022-08-25T05:46:11.132Z,18.02
2022-08-25T05:48:37.648Z,18.09
2022-08-25T05:51:05.602Z,18.11
2022-08-25T05:53:34.077Z,18.14
2022-08-25T05:56:01.052Z,18.18
2022-08-25T05:58:28.303Z,18.24
2022-08-25T06:00:55.208Z,18.29
2022-08-25T06:03:21.622Z,18.35
2022-08-25T06:05:48.077Z,18.34
2022-08-25T06:08:14.417Z,18.41
2022-08-25T06:10:40.735Z,18.45
2022-08-25T06:13:07.068Z,18.56
2022-08-25T06:15:33.925Z,18.65
2022-08-25T06:18:01.865Z,18.78
2022-08-25T06:20:30.653Z,18.88
2022-08-25T06:22:57.523Z,19.12
2022-08-25T06:25:25.205Z,19.26
2022-08-25T06:27:51.553Z,19.37
2022-08-25T06:30:24.371Z,19.39
2022-08-25T06:32:51.049Z,19.42
2022-08-25T06:35:18.817Z,19.48
2022-08-25T06:37:45.288Z,19.61
2022-08-25T06:40:12.033Z,19.53
2022-08-25T06:42:38.441Z,19.76
2022-08-25T06:45:06.314Z,19.81
2022-08-25T06:47:32.915Z,19.92
2022-08-25T06:49:59.246Z,19.97
2022-08-25T06:52:27.922Z,19.95
2022-08-25T06:54:55.880Z,20.03
2022-08-25T06:57:22.213Z,20.14
2022-08-25T06:59:49.148Z,20.14
2022-08-25T07:02:21.923Z,20.19
2022-08-25T07:04:48.649Z,20.12
2022-08-25T07:07:15.016Z,20.25
2022-08-25T07:09:41.339Z,20.30
2022-08-25T07:12:08.092Z,20.34
2022-08-25T07:14:35.259Z,20.44
2022-08-25T07:17:03.073Z,20.41
2022-08-25T07:19:38.580Z,20.65
2022-08-25T07:22:07.311Z,20.71
2022-08-25T07:24:35.743Z,20.69
2022-08-25T07:27:02.232Z,20.71
2022-08-25T07:29:31.893Z,20.69
2022-08-25T07:31:59.771Z,20.72
2022-08-25T07:34:44.632Z,20.72
2022-08-25T07:37:32.270Z,20.71
2022-08-25T07:40:05.755Z,20.84
2022-08-25T07:42:32.090Z,20.92
2022-08-25T07:44:58.698Z,21.10
2022-08-25T07:47:25.063Z,21.21
2022-08-25T07:49:51.994Z,21.25
2022-08-25T07:52:18.312Z,21.41
2022-08-25T07:54:44.649Z,21.37
2022-08-25T07:57:13.510Z,21.48
2022-08-25T07:59:42.855Z,21.71
2022-08-25T08:02:18.361Z,21.67
2022-08-25T08:04:48.398Z,21.62
2022-08-25T08:07:19.124Z,21.64
2022-08-25T08:09:45.669Z,21.60
2022-08-25T08:12:12.419Z,21.76
2022-08-25T08:14:44.865Z,21.77
2022-08-25T08:17:12.310Z,22.07
2022-08-25T08:19:44.883Z,22.11
2022-08-25T08:22:14.942Z,22.12
2022-08-25T08:24:54.820Z,21.86
2022-08-25T08:27:23.029Z,22.00
2022-08-25T08:29:49.337Z,22.04
2022-08-25T08:32:18.522Z,22.17
2022-08-25T08:34:46.125Z,22.11
2022-08-25T08:37:12.435Z,22.44
2022-08-25T08:39:39.582Z,22.45
2022-08-25T08:42:23.162Z,22.80
2022-08-25T08:45:09.880Z,22.90
2022-08-25T08:47:42.528Z,23.34
2022-08-25T08:50:27.898Z,23.27
2022-08-25T08:53:15.050Z,23.22
2022-08-25T08:55:43.806Z,23.46
2022-08-25T08:58:18.409Z,23.48
2022-08-25T09:00:52.329Z,23.64
2022-08-25T09:03:27.474Z,23.49
2022-08-25T09:05:56.545Z,23.59
2022-08-25T09:08:22.863Z,23.62
2022-08-25T09:10:58.348Z,23.77
2022-08-25T09:13:36.512Z,23.59
2022-08-25T09:16:31.770Z,23.72
2022-08-25T09:19:06.947Z,23.70
2022-08-25T09:21:39.410Z,23.43
2022-08-25T09:24:09.471Z,23.50
2022-08-25T09:26:58.913Z,23.56
2022-08-25T09:29:28.735Z,23.54
2022-08-25T09:31:57.813Z,23.50
2022-08-25T09:34:28.444Z,23.56
2022-08-25T09:36:54.755Z,23.75
2022-08-25T09:39:23.483Z,24.05
2022-08-25T09:41:53.000Z,24.33
2022-08-25T09:44:40.131Z,24.35
2022-08-25T09:47:13.566Z,24.26
2022-08-25T09:49:41.381Z,24.29
2022-08-25T09:52:23.004Z,24.11
2022-08-25T09:54:52.402Z,24.34
2022-08-25T09:57:29.276Z,24.36
2022-08-25T09:59:57.954Z,24.48
2022-08-25T10:02:28.871Z,24.74
2022-08-25T10:04:55.905Z,24.76
2022-08-25T10:07:30.600Z,24.84
2022-08-25T10:09:59.543Z,24.39
2022-08-25T10:12:38.021Z,24.34
2022-08-25T10:15:29.203Z,24.25
2022-08-25T10:17:57.560Z,24.62
2022-08-25T10:20:25.950Z,24.65
2022-08-25T10:23:09.434Z,24.44
2022-08-25T10:25:39.557Z,24.18
2022-08-25T10:28:15.482Z,23.84
2022-08-25T10:31:01.374Z,23.81
2022-08-25T10:33:35.606Z,23.99
2022-08-25T10:36:11.520Z,24.01
2022-08-25T10:38:43.877Z,24.24
2022-08-25T10:41:25.400Z,24.86
2022-08-25T10:43:54.795Z,25.09
2022-08-25T10:46:25.070Z,25.37
2022-08-25T10:48:52.612Z,25.28
2022-08-25T10:51:25.733Z,25.45
2022-08-25T10:53:53.030Z,25.46
2022-08-25T10:56:29.235Z,25.12
2022-08-25T10:58:55.573Z,25.24
2022-08-25T11:01:29.055Z,24.89
2022-08-25T11:04:01.874Z,25.75
2022-08-25T11:06:31.257Z,26.43
2022-08-25T11:09:00.555Z,26.96
2022-08-25T11:11:38.971Z,28.30
2022-08-25T11:14:16.883Z,29.13
2022-08-25T11:16:57.414Z,29.94
2022-08-25T11:19:26.742Z,29.74
2022-08-25T11:22:11.952Z,28.38
2022-08-25T11:24:39.419Z,28.48
2022-08-25T11:27:09.938Z,28.03
2022-08-25T11:29:41.820Z,26.93
2022-08-25T11:32:08.170Z,28.01
2022-08-25T11:34:36.900Z,28.35
2022-08-25T11:37:26.025Z,28.17
2022-08-25T11:40:11.696Z,27.35
2022-08-25T11:42:53.384Z,26.93
2022-08-25T11:45:38.400Z,26.94
2022-08-25T11:48:26.811Z,26.69
2022-08-25T11:50:53.804Z,27.17
2022-08-25T11:53:30.842Z,28.21
2022-08-25T11:56:17.479Z,29.34
2022-08-25T11:58:49.934Z,30.57
2022-08-25T12:01:35.621Z,31.19
2022-08-25T12:04:13.345Z,31.40
2022-08-25T12:06:59.990Z,31.39
2022-08-25T12:09:26.293Z,31.41
2022-08-25T12:11:57.977Z,31.76
2022-08-25T12:14:24.506Z,31.63
2022-08-25T12:16:54.838Z,32.18
2022-08-25T12:19:26.286Z,32.07
2022-08-25T12:22:15.068Z,31.73
2022-08-25T12:24:47.959Z,31.34
2022-08-25T12:27:33.544Z,31.46
2022-08-25T12:30:15.584Z,32.49
2022-08-25T12:32:44.983Z,32.41
2022-08-25T12:35:11.366Z,32.66
2022-08-25T12:37:55.995Z,32.70
2022-08-25T12:40:32.610Z,31.92
2022-08-25T12:43:19.805Z,31.19
2022-08-25T12:45:47.952Z,31.17
2022-08-25T12:48:26.279Z,31.73
2022-08-25T12:51:00.919Z,31.65
2022-08-25T12:53:41.350Z,30.90
2022-08-25T12:56:10.131Z,31.68
2022-08-25T12:59:01.110Z,32.40
2022-08-25T13:01:43.907Z,33.38
2022-08-25T13:04:29.270Z,33.80
2022-08-25T13:07:13.156Z,33.01
2022-08-25T13:09:46.000Z,31.97
2022-08-25T13:12:38.740Z,30.33
2022-08-25T13:15:05.279Z,29.28
2022-08-25T13:17:35.102Z,30.02
2022-08-25T13:20:30.785Z,31.04
2022-08-25T13:22:59.195Z,31.86
2022-08-25T13:25:32.243Z,32.22
2022-08-25T13:28:01.301Z,32.40
2022-08-25T13:30:31.741Z,31.57
2022-08-25T13:32:58.652Z,30.32
2022-08-25T13:35:32.190Z,29.44
2022-08-25T13:38:15.069Z,28.76
2022-08-25T13:40:43.201Z,29.44
2022-08-25T13:43:12.395Z,29.43
2022-08-25T13:45:46.460Z,28.75
2022-08-25T13:48:22.440Z,27.84
2022-08-25T13:51:08.334Z,27.53
2022-08-25T13:53:38.534Z,28.32
2022-08-25T13:56:05.125Z,29.66
2022-08-25T13:58:39.228Z,30.55
2022-08-25T14:01:47.883Z,29.67
2022-08-25T14:04:27.527Z,28.46
2022-08-25T14:07:12.504Z,27.68
2022-08-25T14:09:40.589Z,27.92
2022-08-25T14:12:07.568Z,27.75
2022-08-25T14:14:35.104Z,28.89
2022-08-25T14:17:28.858Z,29.42
2022-08-25T14:19:58.547Z,29.33
2022-08-25T14:22:25.371Z,29.12
2022-08-25T14:24:52.859Z,29.36
2022-08-25T14:27:19.517Z,28.64
2022-08-25T14:29:47.173Z,27.70
2022-08-25T14:32:16.841Z,28.01
2022-08-25T14:34:43.864Z,29.23
2022-08-25T14:37:12.876Z,29.13
2022-08-25T14:39:42.171Z,29.56
2022-08-25T14:42:11.505Z,30.03
2022-08-25T14:44:38.154Z,30.19
2022-08-25T14:47:06.962Z,30.56
2022-08-25T14:49:35.428Z,30.69
2022-08-25T14:52:06.764Z,31.22
2022-08-25T14:54:35.869Z,30.83
2022-08-25T14:57:04.292Z,30.64
2022-08-25T14:59:34.845Z,30.38
2022-08-25T15:02:01.252Z,30.43
2022-08-25T15:04:28.918Z,30.24
2022-08-25T15:06:56.613Z,30.12
2022-08-25T15:09:24.569Z,29.78
2022-08-25T15:11:52.402Z,29.78
2022-08-25T15:14:28.963Z,29.47
2022-08-25T15:16:59.847Z,29.06
2022-08-25T15:19:27.121Z,28.44
2022-08-25T15:21:53.960Z,27.50
2022-08-25T15:24:25.569Z,27.24
2022-08-25T15:29:22.139Z,26.71
2022-08-25T15:31:49.703Z,26.43
2022-08-25T15:34:17.062Z,26.19
2022-08-25T15:36:43.759Z,26.01
2022-08-25T15:39:10.452Z,25.78
2022-08-25T15:41:37.797Z,25.71
2022-08-25T15:44:06.178Z,25.58
2022-08-25T15:46:35.623Z,25.42
2022-08-25T15:49:02.341Z,25.19
2022-08-25T15:51:29.315Z,25.07
2022-08-25T15:53:56.987Z,24.96
2022-08-25T15:56:26.666Z,24.79
2022-08-25T15:58:53.409Z,24.67
2022-08-25T16:01:21.989Z,24.61
2022-08-25T16:03:51.293Z,24.64
2022-08-25T16:06:17.703Z,24.54
2022-08-25T16:08:44.483Z,24.54
2022-08-25T16:11:18.636Z,24.43
2022-08-25T16:13:45.675Z,24.32
2022-08-25T16:16:12.236Z,24.34
2022-08-25T16:18:38.617Z,24.27
2022-08-25T16:21:12.658Z,24.23
2022-08-25T16:23:39.549Z,24.18
2022-08-25T16:26:08.892Z,24.16
2022-08-25T16:28:36.952Z,24.08
2022-08-25T16:31:03.632Z,24.01
2022-08-25T16:33:30.042Z,23.99
2022-08-25T16:36:08.259Z,23.94
2022-08-25T16:38:35.667Z,23.90
2022-08-25T16:41:08.686Z,23.82
2022-08-25T16:43:35.966Z,23.76
2022-08-25T16:46:04.587Z,23.77
2022-08-25T16:48:31.307Z,23.76
2022-08-25T16:50:57.945Z,23.65
2022-08-25T16:53:42.969Z,23.64
2022-08-25T16:56:11.539Z,23.56
2022-08-25T16:58:38.654Z,23.56
2022-08-25T17:01:07.250Z,23.49
2022-08-25T17:03:36.987Z,23.43
2022-08-25T17:06:03.345Z,23.41
2022-08-25T17:08:30.771Z,23.29
2022-08-25T17:11:17.240Z,23.24
2022-08-25T17:13:44.874Z,23.17
2022-08-25T17:16:13.167Z,23.22
2022-08-25T17:18:41.111Z,23.18
2022-08-25T17:21:09.291Z,23.09
2022-08-25T17:23:36.498Z,22.98
2022-08-25T17:26:04.669Z,22.90
2022-08-25T17:28:31.895Z,22.91
2022-08-25T17:30:58.535Z,22.87
2022-08-25T17:33:25.579Z,22.80
2022-08-25T17:35:55.878Z,22.76
2022-08-25T17:38:26.078Z,22.71
2022-08-25T17:40:54.063Z,22.63
2022-08-25T17:43:21.373Z,22.53
2022-08-25T17:45:47.915Z,22.51
2022-08-25T17:48:15.031Z,22.48
2022-08-25T17:50:41.394Z,22.37
2022-08-25T17:53:09.192Z,22.29
2022-08-25T17:55:35.793Z,22.23
2022-08-25T17:58:03.059Z,22.12
2022-08-25T18:00:29.971Z,22.02
2022-08-25T18:02:57.405Z,21.97
2022-08-25T18:05:24.118Z,21.92
2022-08-25T18:07:54.178Z,21.84
2022-08-25T18:10:20.589Z,21.77
2022-08-25T18:12:46.915Z,21.71
2022-08-25T18:15:14.137Z,21.62
2022-08-25T18:17:40.944Z,21.51
2022-08-25T18:20:09.113Z,21.45
2022-08-25T18:22:35.794Z,21.38
2022-08-25T18:25:06.724Z,21.29
2022-08-25T18:27:34.260Z,21.23
2022-08-25T18:30:01.013Z,21.17
2022-08-25T18:32:28.000Z,21.11
2022-08-25T18:34:55.959Z,21.07
2022-08-25T18:37:42.019Z,21.00
2022-08-25T18:40:24.155Z,20.98
2022-08-25T18:42:54.899Z,20.90
2022-08-25T18:45:23.183Z,20.83
2022-08-25T18:47:56.358Z,20.78
2022-08-25T18:50:24.173Z,20.71
2022-08-25T18:52:50.640Z,20.66
2022-08-25T18:55:21.913Z,20.62
2022-08-25T18:57:48.319Z,20.58
2022-08-25T19:00:18.290Z,20.51
2022-08-25T19:02:48.915Z,20.42
2022-08-25T19:05:16.024Z,20.39
2022-08-25T19:07:43.199Z,20.34
2022-08-25T19:10:09.741Z,20.30
2022-08-25T19:12:36.781Z,20.25
2022-08-25T19:15:04.590Z,20.25
2022-08-25T19:17:37.367Z,20.15
2022-08-25T19:20:04.767Z,20.10
2022-08-25T19:22:41.681Z,20.06
2022-08-25T19:25:09.457Z,20.02
2022-08-25T19:27:35.779Z,20.02
2022-08-25T19:30:03.078Z,19.99
2022-08-25T19:32:30.088Z,19.99
2022-08-25T19:34:56.663Z,19.95
2022-08-25T19:37:27.305Z,19.93
2022-08-25T19:39:54.871Z,19.89
2022-08-25T19:42:35.162Z,19.89
2022-08-25T19:45:06.161Z,19.85
2022-08-25T19:47:34.120Z,19.85
2022-08-25T19:50:00.512Z,19.84
2022-08-25T19:52:26.909Z,19.82
2022-08-25T19:54:55.310Z,19.78
2022-08-25T19:57:28.236Z,19.72
2022-08-25T20:00:10.486Z,19.71
2022-08-25T20:02:40.185Z,19.69
2022-08-25T20:05:06.913Z,19.67
2022-08-25T20:07:34.034Z,19.64
2022-08-25T20:10:04.988Z,19.59
2022-08-25T20:12:34.435Z,19.56
2022-08-25T20:15:04.467Z,19.53
2022-08-25T20:17:31.329Z,19.47
2022-08-25T20:19:59.522Z,19.45
2022-08-25T20:22:27.248Z,19.44
2022-08-25T20:24:58.569Z,19.43
2022-08-25T20:27:32.502Z,19.43
2022-08-25T20:29:59.829Z,19.43
2022-08-25T20:32:29.317Z,19.38
2022-08-25T20:34:55.878Z,19.35
2022-08-25T20:37:22.727Z,19.32
2022-08-25T20:39:49.114Z,19.30
2022-08-25T20:42:15.456Z,19.28
2022-08-25T20:44:42.488Z,19.26
2022-08-25T20:47:10.320Z,19.27
2022-08-25T20:49:38.020Z,19.24
2022-08-25T20:52:04.632Z,19.23
2022-08-25T20:54:31.093Z,19.19
2022-08-25T20:56:57.573Z,19.14
2022-08-25T20:59:24.726Z,19.10
2022-08-25T21:01:51.624Z,19.11
2022-08-25T21:04:18.943Z,19.09
2022-08-25T21:06:46.939Z,19.08
2022-08-25T21:09:15.934Z,19.05
2022-08-25T21:11:43.677Z,19.03
2022-08-25T21:14:12.100Z,19.07
2022-08-25T21:16:38.806Z,19.09
2022-08-25T21:19:05.983Z,19.08
2022-08-25T21:21:37.455Z,19.09
2022-08-25T21:24:05.266Z,19.07
2022-08-25T21:26:35.557Z,19.06
2022-08-25T21:29:03.830Z,19.08
2022-08-25T21:31:30.772Z,19.08
2022-08-25T21:33:57.822Z,19.09
2022-08-25T21:36:25.397Z,19.09
2022-08-25T21:38:51.899Z,19.07
2022-08-25T21:41:23.266Z,19.08
2022-08-25T21:43:50.159Z,19.13
2022-08-25T21:46:17.942Z,19.12
2022-08-25T21:48:44.575Z,19.12
2022-08-25T21:51:13.576Z,19.13
2022-08-25T21:53:40.152Z,19.11
2022-08-25T21:56:12.147Z,19.11
2022-08-25T21:58:38.750Z,19.09
2022-08-25T22:01:11.167Z,19.08
2022-08-25T22:03:38.610Z,19.07
2022-08-25T22:06:06.663Z,19.04
2022-08-25T22:08:34.228Z,19.03
2022-08-25T22:11:01.167Z,19.02
2022-08-25T22:13:28.428Z,19.04
2022-08-25T22:15:55.606Z,19.01
2022-08-25T22:18:21.958Z,19.04
2022-08-25T22:20:48.879Z,19.03
2022-08-25T22:23:20.071Z,19.04
2022-08-25T22:25:47.134Z,19.03
2022-08-25T22:28:15.721Z,19.02
2022-08-25T22:30:42.656Z,18.99
2022-08-25T22:33:09.422Z,18.98
2022-08-25T22:35:35.881Z,18.97
2022-08-25T22:38:06.028Z,18.98
2022-08-25T22:40:34.619Z,18.96
2022-08-25T22:43:00.997Z,18.99
2022-08-25T22:45:27.987Z,19.00
2022-08-25T22:47:55.239Z,18.98
2022-08-25T22:50:21.636Z,18.96
2022-08-25T22:52:48.259Z,18.92
2022-08-25T22:55:14.827Z,18.95
2022-08-25T22:57:42.647Z,18.93
2022-08-25T23:00:10.974Z,18.91
2022-08-25T23:02:37.296Z,18.89
2022-08-25T23:05:04.085Z,18.87
2022-08-25T23:07:32.862Z,18.87
2022-08-25T23:10:02.495Z,18.86
2022-08-25T23:12:29.248Z,18.85
2022-08-25T23:14:55.810Z,18.84
2022-08-25T23:17:22.258Z,18.83
2022-08-25T23:19:48.614Z,18.80
2022-08-25T23:22:16.157Z,18.79
2022-08-25T23:24:44.258Z,18.76
2022-08-25T23:27:12.346Z,18.72
2022-08-25T23:29:39.615Z,18.72
2022-08-25T23:32:07.348Z,18.69
2022-08-25T23:34:34.709Z,18.67
2022-08-25T23:37:01.449Z,18.65
2022-08-25T23:39:27.776Z,18.62
2022-08-25T23:41:54.450Z,18.61
2022-08-25T23:44:21.732Z,18.59
2022-08-25T23:46:48.709Z,18.56
2022-08-25T23:49:18.404Z,18.56
2022-08-25T23:51:46.312Z,18.52
2022-08-25T23:54:14.643Z,18.49
2022-08-25T23:56:44.977Z,18.47
2022-08-25T23:59:18.864Z,18.49
